METAR Data
IDs: Format: Raw Decoded Include TAF

Data at: 0850 UTC 18 Nov 2018

METAR for:KHSE (Hatteras/Mitchell Fl, NC, US)
Text:KHSE 180751Z AUTO 04006KT 10SM CLR 12/07 A3028 RMK AO2 SLP253 T01170072
Temperature: 11.7°C ( 53°F)
Dewpoint: 7.2°C ( 45°F) [RH = 74%]
Pressure (altimeter):30.28 inches Hg (1025.5 mb) [Sea level pressure: 1025.3 mb]
Winds:from the NE (40 degrees) at 7 MPH (6 knots; 3.1 m/s)
Visibility:10 or more sm (16+ km)
Ceiling:at least 12,000 feet AGL
Clouds:sky clear below 12,000 feet AGL
QC Flag:automated observation with no human augmentation
Text:KHSE 180651Z AUTO 04009KT 010V070 10SM CLR 12/07 A3028 RMK AO2 SLP252 T01170067
Temperature: 11.7°C ( 53°F)
Dewpoint: 6.7°C ( 44°F) [RH = 71%]
Pressure (altimeter):30.28 inches Hg (1025.5 mb) [Sea level pressure: 1025.2 mb]
Winds:from the NE (40 degrees) at 10 MPH (9 knots; 4.6 m/s)
Visibility:10 or more sm (16+ km)
Ceiling:at least 12,000 feet AGL
Clouds:sky clear below 12,000 feet AGL
QC Flag:automated observation with no human augmentation
Text:KHSE 180551Z AUTO 04008G14KT 10SM CLR 12/07 A3029 RMK AO2 SLP255 T01170067 10117 20111 58003
Temperature: 11.7°C ( 53°F)
Dewpoint: 6.7°C ( 44°F) [RH = 71%]
Pressure (altimeter):30.29 inches Hg (1025.8 mb) [Sea level pressure: 1025.5 mb]
Winds:from the NE (40 degrees) at 9 MPH (8 knots; 4.1 m/s) gusting to 16 MPH (14 knots; 7.2 m/s)
Visibility:10 or more sm (16+ km)
Ceiling:at least 12,000 feet AGL
Clouds:sky clear below 12,000 feet AGL
QC Flag:automated observation with no human augmentation
Text:KHSE 180451Z AUTO VRB06KT 10SM CLR 12/07 A3029 RMK AO2 SLP258 T01170072 401610100
Temperature: 11.7°C ( 53°F)
Dewpoint: 7.2°C ( 45°F) [RH = 74%]
Pressure (altimeter):30.29 inches Hg (1025.8 mb) [Sea level pressure: 1025.8 mb]
Winds:variable direction winds at 7 MPH (6 knots; 3.1 m/s)
Visibility:10 or more sm (16+ km)
Ceiling:at least 12,000 feet AGL
Clouds:sky clear below 12,000 feet AGL
QC Flag:automated observation with no human augmentation
Text:KHSE 180351Z AUTO 04006KT 10SM CLR 11/07 A3029 RMK AO2 SLP257 T01110072
Temperature: 11.1°C ( 52°F)
Dewpoint: 7.2°C ( 45°F) [RH = 77%]
Pressure (altimeter):30.29 inches Hg (1025.8 mb) [Sea level pressure: 1025.7 mb]
Winds:from the NE (40 degrees) at 7 MPH (6 knots; 3.1 m/s)
Visibility:10 or more sm (16+ km)
Ceiling:at least 12,000 feet AGL
Clouds:sky clear below 12,000 feet AGL
QC Flag:automated observation with no human augmentation
Text:KHSE 180251Z AUTO 04006KT 10SM CLR 11/08 A3029 RMK AO2 SLP258 T01110078 53006
Temperature: 11.1°C ( 52°F)
Dewpoint: 7.8°C ( 46°F) [RH = 80%]
Pressure (altimeter):30.29 inches Hg (1025.8 mb) [Sea level pressure: 1025.8 mb]
Winds:from the NE (40 degrees) at 7 MPH (6 knots; 3.1 m/s)
Visibility:10 or more sm (16+ km)
Ceiling:at least 12,000 feet AGL
Clouds:sky clear below 12,000 feet AGL
QC Flag:automated observation with no human augmentation
Text:KHSE 180151Z AUTO VRB06KT 10SM CLR 11/08 A3028 RMK AO2 SLP254 T01110078
Temperature: 11.1°C ( 52°F)
Dewpoint: 7.8°C ( 46°F) [RH = 80%]
Pressure (altimeter):30.28 inches Hg (1025.5 mb) [Sea level pressure: 1025.4 mb]
Winds:variable direction winds at 7 MPH (6 knots; 3.1 m/s)
Visibility:10 or more sm (16+ km)
Ceiling:at least 12,000 feet AGL
Clouds:sky clear below 12,000 feet AGL
QC Flag:automated observation with no human augmentation
Text:KHSE 180051Z AUTO 04005KT 10SM CLR 11/08 A3028 RMK AO2 SLP252 T01110078
Temperature: 11.1°C ( 52°F)
Dewpoint: 7.8°C ( 46°F) [RH = 80%]
Pressure (altimeter):30.28 inches Hg (1025.5 mb) [Sea level pressure: 1025.2 mb]
Winds:from the NE (40 degrees) at 6 MPH (5 knots; 2.6 m/s)
Visibility:10 or more sm (16+ km)
Ceiling:at least 12,000 feet AGL
Clouds:sky clear below 12,000 feet AGL
QC Flag:automated observation with no human augmentation
Text:KHSE 172351Z AUTO 04005KT 10SM CLR 11/07 A3028 RMK AO2 SLP252 T01110072 10161 20111 52013
Temperature: 11.1°C ( 52°F)
Dewpoint: 7.2°C ( 45°F) [RH = 77%]
Pressure (altimeter):30.28 inches Hg (1025.5 mb) [Sea level pressure: 1025.2 mb]
Winds:from the NE (40 degrees) at 6 MPH (5 knots; 2.6 m/s)
Visibility:10 or more sm (16+ km)
Ceiling:at least 12,000 feet AGL
Clouds:sky clear below 12,000 feet AGL
QC Flag:automated observation with no human augmentation
Text:KHSE 172251Z AUTO VRB05KT 10SM CLR 11/07 A3026 RMK AO2 SLP247 T01110072
Temperature: 11.1°C ( 52°F)
Dewpoint: 7.2°C ( 45°F) [RH = 77%]
Pressure (altimeter):30.26 inches Hg (1024.8 mb) [Sea level pressure: 1024.7 mb]
Winds:variable direction winds at 6 MPH (5 knots; 2.6 m/s)
Visibility:10 or more sm (16+ km)
Ceiling:at least 12,000 feet AGL
Clouds:sky clear below 12,000 feet AGL
QC Flag:automated observation with no human augmentation
Text:KHSE 172151Z AUTO 04005KT 10SM CLR 12/08 A3025 RMK AO2 SLP243 T01220078
Temperature: 12.2°C ( 54°F)
Dewpoint: 7.8°C ( 46°F) [RH = 74%]
Pressure (altimeter):30.25 inches Hg (1024.5 mb) [Sea level pressure: 1024.3 mb]
Winds:from the NE (40 degrees) at 6 MPH (5 knots; 2.6 m/s)
Visibility:10 or more sm (16+ km)
Ceiling:at least 12,000 feet AGL
Clouds:sky clear below 12,000 feet AGL
QC Flag:automated observation with no human augmentation
Text:KHSE 172051Z AUTO 04006KT 10SM CLR 14/08 A3024 RMK AO2 SLP239 T01390083 53003
Temperature: 13.9°C ( 57°F)
Dewpoint: 8.3°C ( 47°F) [RH = 69%]
Pressure (altimeter):30.24 inches Hg (1024.1 mb) [Sea level pressure: 1023.9 mb]
Winds:from the NE (40 degrees) at 7 MPH (6 knots; 3.1 m/s)
Visibility:10 or more sm (16+ km)
Ceiling:at least 12,000 feet AGL
Clouds:sky clear below 12,000 feet AGL
QC Flag:automated observation with no human augmentation
Text:KHSE 171951Z AUTO 04009G14KT 10SM CLR 14/08 A3022 RMK AO2 SLP233 T01440078
Temperature: 14.4°C ( 58°F)
Dewpoint: 7.8°C ( 46°F) [RH = 65%]
Pressure (altimeter):30.22 inches Hg (1023.5 mb) [Sea level pressure: 1023.3 mb]
Winds:from the NE (40 degrees) at 10 MPH (9 knots; 4.6 m/s) gusting to 16 MPH (14 knots; 7.2 m/s)
Visibility:10 or more sm (16+ km)
Ceiling:at least 12,000 feet AGL
Clouds:sky clear below 12,000 feet AGL
QC Flag:automated observation with no human augmentation
Text:KHSE 171851Z AUTO 04009G15KT 10SM CLR 15/08 A3022 RMK AO2 SLP233 T01500083
Temperature: 15.0°C ( 59°F)
Dewpoint: 8.3°C ( 47°F) [RH = 64%]
Pressure (altimeter):30.22 inches Hg (1023.5 mb) [Sea level pressure: 1023.3 mb]
Winds:from the NE (40 degrees) at 10 MPH (9 knots; 4.6 m/s) gusting to 17 MPH (15 knots; 7.7 m/s)
Visibility:10 or more sm (16+ km)
Ceiling:at least 12,000 feet AGL
Clouds:sky clear below 12,000 feet AGL
QC Flag:automated observation with no human augmentation
Text:KHSE 171751Z AUTO VRB06KT 10SM CLR 16/09 A3023 RMK AO2 SLP236 T01560094 10161 20100 58009
Temperature: 15.6°C ( 60°F)
Dewpoint: 9.4°C ( 49°F) [RH = 67%]
Pressure (altimeter):30.23 inches Hg (1023.8 mb) [Sea level pressure: 1023.6 mb]
Winds:variable direction winds at 7 MPH (6 knots; 3.1 m/s)
Visibility:10 or more sm (16+ km)
Ceiling:at least 12,000 feet AGL
Clouds:sky clear below 12,000 feet AGL
QC Flag:automated observation with no human augmentation
Text:KHSE 171651Z AUTO 02007KT 10SM CLR 15/09 A3024 RMK AO2 SLP240 T01500094
Temperature: 15.0°C ( 59°F)
Dewpoint: 9.4°C ( 49°F) [RH = 69%]
Pressure (altimeter):30.24 inches Hg (1024.1 mb) [Sea level pressure: 1024.0 mb]
Winds:from the NNE (20 degrees) at 8 MPH (7 knots; 3.6 m/s)
Visibility:10 or more sm (16+ km)
Ceiling:at least 12,000 feet AGL
Clouds:sky clear below 12,000 feet AGL
QC Flag:automated observation with no human augmentation
Text:KHSE 171551Z AUTO 00000KT 10SM CLR 15/09 A3026 RMK AO2 SLP245 T01500089
Temperature: 15.0°C ( 59°F)
Dewpoint: 8.9°C ( 48°F) [RH = 67%]
Pressure (altimeter):30.26 inches Hg (1024.8 mb) [Sea level pressure: 1024.5 mb]
Winds:calm
Visibility:10 or more sm (16+ km)
Ceiling:at least 12,000 feet AGL
Clouds:sky clear below 12,000 feet AGL
QC Flag:automated observation with no human augmentation
Text:KHSE 171451Z AUTO VRB05KT 10SM CLR 13/08 A3026 RMK AO2 SLP245 T01330078 51018
Temperature: 13.3°C ( 56°F)
Dewpoint: 7.8°C ( 46°F) [RH = 69%]
Pressure (altimeter):30.26 inches Hg (1024.8 mb) [Sea level pressure: 1024.5 mb]
Winds:variable direction winds at 6 MPH (5 knots; 2.6 m/s)
Visibility:10 or more sm (16+ km)
Ceiling:at least 12,000 feet AGL
Clouds:sky clear below 12,000 feet AGL
QC Flag:automated observation with no human augmentation
Text:KHSE 171351Z AUTO VRB03KT 10SM CLR 12/07 A3024 RMK AO2 SLP240 T01220067
Temperature: 12.2°C ( 54°F)
Dewpoint: 6.7°C ( 44°F) [RH = 69%]
Pressure (altimeter):30.24 inches Hg (1024.1 mb) [Sea level pressure: 1024.0 mb]
Winds:variable direction winds at 3 MPH (3 knots; 1.5 m/s)
Visibility:10 or more sm (16+ km)
Ceiling:at least 12,000 feet AGL
Clouds:sky clear below 12,000 feet AGL
QC Flag:automated observation with no human augmentation
Text:KHSE 171251Z AUTO VRB03KT 10SM CLR 12/07 A3023 RMK AO2 SLP235 T01170067
Temperature: 11.7°C ( 53°F)
Dewpoint: 6.7°C ( 44°F) [RH = 71%]
Pressure (altimeter):30.23 inches Hg (1023.8 mb) [Sea level pressure: 1023.5 mb]
Winds:variable direction winds at 3 MPH (3 knots; 1.5 m/s)
Visibility:10 or more sm (16+ km)
Ceiling:at least 12,000 feet AGL
Clouds:sky clear below 12,000 feet AGL
QC Flag:automated observation with no human augmentation
Text:KHSE 171151Z AUTO 33005KT 10SM CLR 10/06 A3020 RMK AO2 SLP227 T01000061 10117 20100 53020
Temperature: 10.0°C ( 50°F)
Dewpoint: 6.1°C ( 43°F) [RH = 77%]
Pressure (altimeter):30.20 inches Hg (1022.8 mb) [Sea level pressure: 1022.7 mb]
Winds:from the NNW (330 degrees) at 6 MPH (5 knots; 2.6 m/s)
Visibility:10 or more sm (16+ km)
Ceiling:at least 12,000 feet AGL
Clouds:sky clear below 12,000 feet AGL
QC Flag:automated observation with no human augmentation
Text:KHSE 171051Z AUTO VRB03KT 10SM CLR 11/05 A3018 RMK AO2 SLP221 T01060050
Temperature: 10.6°C ( 51°F)
Dewpoint: 5.0°C ( 41°F) [RH = 68%]
Pressure (altimeter):30.18 inches Hg (1022.1 mb) [Sea level pressure: 1022.1 mb]
Winds:variable direction winds at 3 MPH (3 knots; 1.5 m/s)
Visibility:10 or more sm (16+ km)
Ceiling:at least 12,000 feet AGL
Clouds:sky clear below 12,000 feet AGL
QC Flag:automated observation with no human augmentation
Text:KHSE 170951Z AUTO 32004KT 10SM CLR 11/04 A3016 RMK AO2 SLP212 T01110044
Temperature: 11.1°C ( 52°F)
Dewpoint: 4.4°C ( 40°F) [RH = 63%]
Pressure (altimeter):30.16 inches Hg (1021.4 mb) [Sea level pressure: 1021.2 mb]
Winds:from the NW (320 degrees) at 5 MPH (4 knots; 2.1 m/s)
Visibility:10 or more sm (16+ km)
Ceiling:at least 12,000 feet AGL
Clouds:sky clear below 12,000 feet AGL
QC Flag:automated observation with no human augmentation
Text:KHSE 170851Z AUTO 32006KT 10SM CLR 11/04 A3014 RMK AO2 SLP207 T01110039 51008
Temperature: 11.1°C ( 52°F)
Dewpoint: 3.9°C ( 39°F) [RH = 61%]
Pressure (altimeter):30.14 inches Hg (1020.7 mb) [Sea level pressure: 1020.7 mb]
Winds:from the NW (320 degrees) at 7 MPH (6 knots; 3.1 m/s)
Visibility:10 or more sm (16+ km)
Ceiling:at least 12,000 feet AGL
Clouds:sky clear below 12,000 feet AGL
QC Flag:automated observation with no human augmentation
Text:KHSE 170751Z AUTO 32005KT 10SM CLR 12/05 A3014 RMK AO2 SLP204 T01170050
Temperature: 11.7°C ( 53°F)
Dewpoint: 5.0°C ( 41°F) [RH = 63%]
Pressure (altimeter):30.14 inches Hg (1020.7 mb) [Sea level pressure: 1020.4 mb]
Winds:from the NW (320 degrees) at 6 MPH (5 knots; 2.6 m/s)
Visibility:10 or more sm (16+ km)
Ceiling:at least 12,000 feet AGL
Clouds:sky clear below 12,000 feet AGL
QC Flag:automated observation with no human augmentation
Text:KHSE 170651Z AUTO 32004KT 10SM CLR 12/05 A3013 RMK AO2 SLP203 T01170050
Temperature: 11.7°C ( 53°F)
Dewpoint: 5.0°C ( 41°F) [RH = 63%]
Pressure (altimeter):30.13 inches Hg (1020.4 mb) [Sea level pressure: 1020.3 mb]
Winds:from the NW (320 degrees) at 5 MPH (4 knots; 2.1 m/s)
Visibility:10 or more sm (16+ km)
Ceiling:at least 12,000 feet AGL
Clouds:sky clear below 12,000 feet AGL
QC Flag:automated observation with no human augmentation
Text:KHSE 170551Z AUTO 32007KT 10SM CLR 12/05 A3012 RMK AO2 SLP199 T01170050 10122 20117 53007
Temperature: 11.7°C ( 53°F)
Dewpoint: 5.0°C ( 41°F) [RH = 63%]
Pressure (altimeter):30.12 inches Hg (1020.1 mb) [Sea level pressure: 1019.9 mb]
Winds:from the NW (320 degrees) at 8 MPH (7 knots; 3.6 m/s)
Visibility:10 or more sm (16+ km)
Ceiling:at least 12,000 feet AGL
Clouds:sky clear below 12,000 feet AGL
QC Flag:automated observation with no human augmentation
Text:KHSE 170451Z AUTO 32007KT 10SM CLR 12/04 A3011 RMK AO2 SLP196 T01170044 401390089
Temperature: 11.7°C ( 53°F)
Dewpoint: 4.4°C ( 40°F) [RH = 61%]
Pressure (altimeter):30.11 inches Hg (1019.7 mb) [Sea level pressure: 1019.6 mb]
Winds:from the NW (320 degrees) at 8 MPH (7 knots; 3.6 m/s)
Visibility:10 or more sm (16+ km)
Ceiling:at least 12,000 feet AGL
Clouds:sky clear below 12,000 feet AGL
QC Flag:automated observation with no human augmentation
Text:KHSE 170351Z AUTO 33006KT 10SM CLR 12/05 A3010 RMK AO2 SLP191 T01170050
Temperature: 11.7°C ( 53°F)
Dewpoint: 5.0°C ( 41°F) [RH = 63%]
Pressure (altimeter):30.10 inches Hg (1019.4 mb) [Sea level pressure: 1019.1 mb]
Winds:from the NNW (330 degrees) at 7 MPH (6 knots; 3.1 m/s)
Visibility:10 or more sm (16+ km)
Ceiling:at least 12,000 feet AGL
Clouds:sky clear below 12,000 feet AGL
QC Flag:automated observation with no human augmentation
Text:KHSE 170251Z AUTO 32007KT 10SM CLR 12/04 A3010 RMK AO2 SLP191 T01170044 51019
Temperature: 11.7°C ( 53°F)
Dewpoint: 4.4°C ( 40°F) [RH = 61%]
Pressure (altimeter):30.10 inches Hg (1019.4 mb) [Sea level pressure: 1019.1 mb]
Winds:from the NW (320 degrees) at 8 MPH (7 knots; 3.6 m/s)
Visibility:10 or more sm (16+ km)
Ceiling:at least 12,000 feet AGL
Clouds:sky clear below 12,000 feet AGL
QC Flag:automated observation with no human augmentation
Text:KHSE 170151Z AUTO 31006KT 10SM CLR 12/04 A3008 RMK AO2 SLP185 T01170044
Temperature: 11.7°C ( 53°F)
Dewpoint: 4.4°C ( 40°F) [RH = 61%]
Pressure (altimeter):30.08 inches Hg (1018.7 mb) [Sea level pressure: 1018.5 mb]
Winds:from the NW (310 degrees) at 7 MPH (6 knots; 3.1 m/s)
Visibility:10 or more sm (16+ km)
Ceiling:at least 12,000 feet AGL
Clouds:sky clear below 12,000 feet AGL
QC Flag:automated observation with no human augmentation
Text:KHSE 170051Z AUTO 31009G16KT 10SM CLR 12/05 A3007 RMK AO2 SLP181 T01220050
Temperature: 12.2°C ( 54°F)
Dewpoint: 5.0°C ( 41°F) [RH = 61%]
Pressure (altimeter):30.07 inches Hg (1018.4 mb) [Sea level pressure: 1018.1 mb]
Winds:from the NW (310 degrees) at 10 MPH (9 knots; 4.6 m/s) gusting to 18 MPH (16 knots; 8.2 m/s)
Visibility:10 or more sm (16+ km)
Ceiling:at least 12,000 feet AGL
Clouds:sky clear below 12,000 feet AGL
QC Flag:automated observation with no human augmentation
Text:KHSE 162351Z AUTO 30008G17KT 10SM CLR 12/05 A3004 RMK AO2 SLP173 T01220050 10139 20117 53020
Temperature: 12.2°C ( 54°F)
Dewpoint: 5.0°C ( 41°F) [RH = 61%]
Pressure (altimeter):30.04 inches Hg (1017.4 mb) [Sea level pressure: 1017.3 mb]
Winds:from the WNW (300 degrees) at 9 MPH (8 knots; 4.1 m/s) gusting to 20 MPH (17 knots; 8.7 m/s)
Visibility:10 or more sm (16+ km)
Ceiling:at least 12,000 feet AGL
Clouds:sky clear below 12,000 feet AGL
QC Flag:automated observation with no human augmentation
Text:KHSE 162251Z AUTO 29008KT 10SM CLR 12/06 A3002 RMK AO2 SLP166 T01220061
Temperature: 12.2°C ( 54°F)
Dewpoint: 6.1°C ( 43°F) [RH = 66%]
Pressure (altimeter):30.02 inches Hg (1016.7 mb) [Sea level pressure: 1016.6 mb]
Winds:from the WNW (290 degrees) at 9 MPH (8 knots; 4.1 m/s)
Visibility:10 or more sm (16+ km)
Ceiling:at least 12,000 feet AGL
Clouds:sky clear below 12,000 feet AGL
QC Flag:automated observation with no human augmentation
Text:KHSE 162151Z AUTO 27006KT 10SM CLR 12/05 A2999 RMK AO2 SLP155 T01170050
Temperature: 11.7°C ( 53°F)
Dewpoint: 5.0°C ( 41°F) [RH = 63%]
Pressure (altimeter):29.99 inches Hg (1015.7 mb) [Sea level pressure: 1015.5 mb]
Winds:from the W (270 degrees) at 7 MPH (6 knots; 3.1 m/s)
Visibility:10 or more sm (16+ km)
Ceiling:at least 12,000 feet AGL
Clouds:sky clear below 12,000 feet AGL
QC Flag:automated observation with no human augmentation
Text:KHSE 162051Z AUTO 28006KT 10SM CLR 13/06 A2998 RMK AO2 SLP153 T01330056 53003
Temperature: 13.3°C ( 56°F)
Dewpoint: 5.6°C ( 42°F) [RH = 60%]
Pressure (altimeter):29.98 inches Hg (1015.3 mb) [Sea level pressure: 1015.3 mb]
Winds:from the W (280 degrees) at 7 MPH (6 knots; 3.1 m/s)
Visibility:10 or more sm (16+ km)
Ceiling:at least 12,000 feet AGL
Clouds:sky clear below 12,000 feet AGL
QC Flag:automated observation with no human augmentation